sensor_id;sensor_type;location;lat;lon;timestamp;P1;durP1;ratioP1;P2;durP2;ratioP2
4106;SDS011;21906;50.812;7.132;2022-07-29T00:00:43;5.90;;;3.33;;
4106;SDS011;21906;50.812;7.132;2022-07-29T00:03:12;3.63;;;2.90;;
4106;SDS011;21906;50.812;7.132;2022-07-29T00:05:38;3.17;;;2.97;;
4106;SDS011;21906;50.812;7.132;2022-07-29T00:08:05;2.90;;;2.70;;
4106;SDS011;21906;50.812;7.132;2022-07-29T00:10:32;3.20;;;3.00;;
4106;SDS011;21906;50.812;7.132;2022-07-29T00:12:58;3.50;;;3.20;;
4106;SDS011;21906;50.812;7.132;2022-07-29T00:15:23;4.17;;;3.13;;
4106;SDS011;21906;50.812;7.132;2022-07-29T00:17:49;3.10;;;2.80;;
4106;SDS011;21906;50.812;7.132;2022-07-29T00:20:15;3.23;;;2.93;;
4106;SDS011;21906;50.812;7.132;2022-07-29T00:22:41;4.70;;;3.30;;
4106;SDS011;21906;50.812;7.132;2022-07-29T00:25:07;3.40;;;3.10;;
4106;SDS011;21906;50.812;7.132;2022-07-29T00:27:33;3.30;;;3.00;;
4106;SDS011;21906;50.812;7.132;2022-07-29T00:30:00;4.43;;;3.40;;
4106;SDS011;21906;50.812;7.132;2022-07-29T00:32:25;3.53;;;3.10;;
4106;SDS011;21906;50.812;7.132;2022-07-29T00:34:51;3.73;;;3.43;;
4106;SDS011;21906;50.812;7.132;2022-07-29T00:37:35;3.30;;;2.93;;
4106;SDS011;21906;50.812;7.132;2022-07-29T00:40:01;3.00;;;2.80;;
4106;SDS011;21906;50.812;7.132;2022-07-29T00:42:27;3.67;;;3.37;;
4106;SDS011;21906;50.812;7.132;2022-07-29T00:44:53;4.73;;;3.00;;
4106;SDS011;21906;50.812;7.132;2022-07-29T00:47:18;3.50;;;3.20;;
4106;SDS011;21906;50.812;7.132;2022-07-29T00:49:44;3.10;;;2.80;;
4106;SDS011;21906;50.812;7.132;2022-07-29T00:52:10;4.47;;;3.10;;
4106;SDS011;21906;50.812;7.132;2022-07-29T00:54:37;3.47;;;2.97;;
4106;SDS011;21906;50.812;7.132;2022-07-29T00:57:05;3.73;;;2.87;;
4106;SDS011;21906;50.812;7.132;2022-07-29T00:59:31;2.90;;;2.70;;
4106;SDS011;21906;50.812;7.132;2022-07-29T01:01:57;3.30;;;2.97;;
4106;SDS011;21906;50.812;7.132;2022-07-29T01:04:23;3.30;;;3.00;;
4106;SDS011;21906;50.812;7.132;2022-07-29T01:06:49;3.57;;;3.37;;
4106;SDS011;21906;50.812;7.132;2022-07-29T01:09:15;3.00;;;2.80;;
4106;SDS011;21906;50.812;7.132;2022-07-29T01:11:43;3.50;;;3.20;;
4106;SDS011;21906;50.812;7.132;2022-07-29T01:14:10;4.60;;;2.77;;
4106;SDS011;21906;50.812;7.132;2022-07-29T01:16:42;3.33;;;3.00;;
4106;SDS011;21906;50.812;7.132;2022-07-29T01:19:47;3.57;;;3.27;;
4106;SDS011;21906;50.812;7.132;2022-07-29T01:22:19;3.27;;;3.07;;
4106;SDS011;21906;50.812;7.132;2022-07-29T01:29:57;2.90;;;2.60;;
4106;SDS011;21906;50.812;7.132;2022-07-29T01:32:26;3.27;;;3.07;;
4106;SDS011;21906;50.812;7.132;2022-07-29T01:35:07;5.30;;;3.33;;
4106;SDS011;21906;50.812;7.132;2022-07-29T01:40:27;4.10;;;3.30;;
4106;SDS011;21906;50.812;7.132;2022-07-29T01:43:17;4.43;;;3.33;;
4106;SDS011;21906;50.812;7.132;2022-07-29T01:46:01;6.07;;;3.50;;
4106;SDS011;21906;50.812;7.132;2022-07-29T01:48:34;3.50;;;3.30;;
4106;SDS011;21906;50.812;7.132;2022-07-29T01:51:21;3.70;;;3.40;;
4106;SDS011;21906;50.812;7.132;2022-07-29T01:53:55;3.90;;;3.53;;
4106;SDS011;21906;50.812;7.132;2022-07-29T01:56:33;4.00;;;3.70;;
4106;SDS011;21906;50.812;7.132;2022-07-29T01:59:01;5.67;;;3.27;;
4106;SDS011;21906;50.812;7.132;2022-07-29T02:01:29;4.30;;;3.87;;
4106;SDS011;21906;50.812;7.132;2022-07-29T02:03:57;3.50;;;3.20;;
4106;SDS011;21906;50.812;7.132;2022-07-29T02:06:27;3.77;;;3.50;;
4106;SDS011;21906;50.812;7.132;2022-07-29T02:08:54;4.30;;;3.90;;
4106;SDS011;21906;50.812;7.132;2022-07-29T02:11:23;3.53;;;3.23;;
4106;SDS011;21906;50.812;7.132;2022-07-29T02:13:49;4.20;;;3.27;;
4106;SDS011;21906;50.812;7.132;2022-07-29T02:16:17;5.40;;;3.90;;
4106;SDS011;21906;50.812;7.132;2022-07-29T02:18:47;3.83;;;3.47;;
4106;SDS011;21906;50.812;7.132;2022-07-29T02:21:20;4.10;;;3.73;;
4106;SDS011;21906;50.812;7.132;2022-07-29T02:23:49;3.93;;;3.53;;
4106;SDS011;21906;50.812;7.132;2022-07-29T02:26:18;4.10;;;3.80;;
4106;SDS011;21906;50.812;7.132;2022-07-29T02:28:45;4.13;;;3.93;;
4106;SDS011;21906;50.812;7.132;2022-07-29T02:31:11;4.40;;;3.90;;
4106;SDS011;21906;50.812;7.132;2022-07-29T02:33:38;4.10;;;3.80;;
4106;SDS011;21906;50.812;7.132;2022-07-29T02:36:05;4.17;;;3.90;;
4106;SDS011;21906;50.812;7.132;2022-07-29T02:38:32;3.60;;;3.30;;
4106;SDS011;21906;50.812;7.132;2022-07-29T02:41:16;3.97;;;3.67;;
4106;SDS011;21906;50.812;7.132;2022-07-29T02:43:45;4.37;;;4.07;;
4106;SDS011;21906;50.812;7.132;2022-07-29T02:46:14;4.50;;;4.20;;
4106;SDS011;21906;50.812;7.132;2022-07-29T02:48:51;4.13;;;3.80;;
4106;SDS011;21906;50.812;7.132;2022-07-29T02:51:29;4.00;;;3.70;;
4106;SDS011;21906;50.812;7.132;2022-07-29T02:54:06;4.00;;;3.80;;
4106;SDS011;21906;50.812;7.132;2022-07-29T02:56:33;3.97;;;3.60;;
4106;SDS011;21906;50.812;7.132;2022-07-29T02:59:03;4.30;;;3.83;;
4106;SDS011;21906;50.812;7.132;2022-07-29T03:01:32;4.07;;;3.57;;
4106;SDS011;21906;50.812;7.132;2022-07-29T03:04:00;4.10;;;3.83;;
4106;SDS011;21906;50.812;7.132;2022-07-29T03:06:29;4.30;;;4.00;;
4106;SDS011;21906;50.812;7.132;2022-07-29T03:08:56;3.77;;;3.37;;
4106;SDS011;21906;50.812;7.132;2022-07-29T03:11:23;4.60;;;4.20;;
4106;SDS011;21906;50.812;7.132;2022-07-29T03:13:50;4.00;;;3.70;;
4106;SDS011;21906;50.812;7.132;2022-07-29T03:16:16;4.20;;;4.00;;
4106;SDS011;21906;50.812;7.132;2022-07-29T03:18:44;4.83;;;4.33;;
4106;SDS011;21906;50.812;7.132;2022-07-29T03:21:09;5.13;;;3.80;;
4106;SDS011;21906;50.812;7.132;2022-07-29T03:23:35;4.30;;;3.60;;
4106;SDS011;21906;50.812;7.132;2022-07-29T03:26:01;4.50;;;4.10;;
4106;SDS011;21906;50.812;7.132;2022-07-29T03:28:27;4.87;;;3.87;;
4106;SDS011;21906;50.812;7.132;2022-07-29T03:30:53;4.13;;;3.83;;
4106;SDS011;21906;50.812;7.132;2022-07-29T03:33:18;4.47;;;4.17;;
4106;SDS011;21906;50.812;7.132;2022-07-29T03:35:44;4.33;;;3.97;;
4106;SDS011;21906;50.812;7.132;2022-07-29T03:38:10;4.57;;;4.17;;
4106;SDS011;21906;50.812;7.132;2022-07-29T03:40:53;3.90;;;3.60;;
4106;SDS011;21906;50.812;7.132;2022-07-29T03:43:21;4.27;;;3.97;;
4106;SDS011;21906;50.812;7.132;2022-07-29T03:45:51;3.90;;;3.57;;
4106;SDS011;21906;50.812;7.132;2022-07-29T03:48:19;4.03;;;3.73;;
4106;SDS011;21906;50.812;7.132;2022-07-29T03:50:46;4.17;;;3.97;;
4106;SDS011;21906;50.812;7.132;2022-07-29T03:53:13;5.07;;;4.57;;
4106;SDS011;21906;50.812;7.132;2022-07-29T03:55:47;4.50;;;3.87;;
4106;SDS011;21906;50.812;7.132;2022-07-29T03:58:16;4.50;;;3.83;;
4106;SDS011;21906;50.812;7.132;2022-07-29T04:00:44;6.03;;;4.57;;
4106;SDS011;21906;50.812;7.132;2022-07-29T04:03:11;4.63;;;4.33;;
4106;SDS011;21906;50.812;7.132;2022-07-29T04:05:38;5.17;;;4.00;;
4106;SDS011;21906;50.812;7.132;2022-07-29T04:08:03;4.83;;;4.00;;
4106;SDS011;21906;50.812;7.132;2022-07-29T04:10:29;5.23;;;4.07;;
4106;SDS011;21906;50.812;7.132;2022-07-29T04:12:55;4.73;;;4.27;;
4106;SDS011;21906;50.812;7.132;2022-07-29T04:15:20;4.20;;;3.90;;
4106;SDS011;21906;50.812;7.132;2022-07-29T04:17:46;4.10;;;3.80;;
4106;SDS011;21906;50.812;7.132;2022-07-29T04:20:12;4.40;;;4.10;;
4106;SDS011;21906;50.812;7.132;2022-07-29T04:22:38;4.50;;;4.10;;
4106;SDS011;21906;50.812;7.132;2022-07-29T04:25:05;5.73;;;4.30;;
4106;SDS011;21906;50.812;7.132;2022-07-29T04:27:30;4.30;;;4.00;;
4106;SDS011;21906;50.812;7.132;2022-07-29T04:29:56;7.17;;;4.03;;
4106;SDS011;21906;50.812;7.132;2022-07-29T04:32:22;3.83;;;3.60;;
4106;SDS011;21906;50.812;7.132;2022-07-29T04:34:48;6.37;;;3.73;;
4106;SDS011;21906;50.812;7.132;2022-07-29T04:37:13;4.30;;;3.90;;
4106;SDS011;21906;50.812;7.132;2022-07-29T04:39:39;4.60;;;4.20;;
4106;SDS011;21906;50.812;7.132;2022-07-29T04:42:05;3.70;;;3.50;;
4106;SDS011;21906;50.812;7.132;2022-07-29T04:44:30;5.37;;;3.83;;
4106;SDS011;21906;50.812;7.132;2022-07-29T04:46:56;3.60;;;3.30;;
4106;SDS011;21906;50.812;7.132;2022-07-29T04:49:22;4.70;;;3.33;;
4106;SDS011;21906;50.812;7.132;2022-07-29T04:51:48;4.23;;;3.40;;
4106;SDS011;21906;50.812;7.132;2022-07-29T04:54:14;4.03;;;2.90;;
4106;SDS011;21906;50.812;7.132;2022-07-29T04:56:39;3.10;;;2.80;;
4106;SDS011;21906;50.812;7.132;2022-07-29T04:59:06;3.37;;;3.07;;
4106;SDS011;21906;50.812;7.132;2022-07-29T05:01:33;3.47;;;3.07;;
4106;SDS011;21906;50.812;7.132;2022-07-29T05:03:59;5.33;;;3.40;;
4106;SDS011;21906;50.812;7.132;2022-07-29T05:06:24;3.70;;;3.40;;
4106;SDS011;21906;50.812;7.132;2022-07-29T05:08:50;2.97;;;2.77;;
4106;SDS011;21906;50.812;7.132;2022-07-29T05:11:16;3.43;;;3.13;;
4106;SDS011;21906;50.812;7.132;2022-07-29T05:13:41;4.17;;;3.17;;
4106;SDS011;21906;50.812;7.132;2022-07-29T05:16:07;7.93;;;3.30;;
4106;SDS011;21906;50.812;7.132;2022-07-29T05:18:33;5.60;;;3.20;;
4106;SDS011;21906;50.812;7.132;2022-07-29T05:20:59;3.27;;;2.90;;
4106;SDS011;21906;50.812;7.132;2022-07-29T05:23:25;4.20;;;3.10;;
4106;SDS011;21906;50.812;7.132;2022-07-29T05:25:50;3.30;;;3.00;;
4106;SDS011;21906;50.812;7.132;2022-07-29T05:28:16;3.87;;;3.07;;
4106;SDS011;21906;50.812;7.132;2022-07-29T05:30:42;3.93;;;2.80;;
4106;SDS011;21906;50.812;7.132;2022-07-29T05:33:09;3.27;;;3.00;;
4106;SDS011;21906;50.812;7.132;2022-07-29T05:35:35;6.50;;;3.10;;
4106;SDS011;21906;50.812;7.132;2022-07-29T05:38:02;3.30;;;3.00;;
4106;SDS011;21906;50.812;7.132;2022-07-29T05:40:28;7.20;;;3.27;;
4106;SDS011;21906;50.812;7.132;2022-07-29T05:42:54;4.07;;;2.93;;
4106;SDS011;21906;50.812;7.132;2022-07-29T05:45:20;5.00;;;3.37;;
4106;SDS011;21906;50.812;7.132;2022-07-29T05:47:46;5.93;;;3.37;;
4106;SDS011;21906;50.812;7.132;2022-07-29T05:50:12;3.77;;;3.43;;
4106;SDS011;21906;50.812;7.132;2022-07-29T05:52:38;3.63;;;3.30;;
4106;SDS011;21906;50.812;7.132;2022-07-29T05:55:04;3.40;;;2.90;;
4106;SDS011;21906;50.812;7.132;2022-07-29T05:57:30;3.53;;;2.80;;
4106;SDS011;21906;50.812;7.132;2022-07-29T05:59:56;3.20;;;2.90;;
4106;SDS011;21906;50.812;7.132;2022-07-29T06:02:22;3.57;;;3.17;;
4106;SDS011;21906;50.812;7.132;2022-07-29T06:04:48;4.60;;;2.90;;
4106;SDS011;21906;50.812;7.132;2022-07-29T06:07:14;3.67;;;3.33;;
4106;SDS011;21906;50.812;7.132;2022-07-29T06:09:41;2.87;;;2.67;;
4106;SDS011;21906;50.812;7.132;2022-07-29T06:12:07;3.10;;;2.80;;
4106;SDS011;21906;50.812;7.132;2022-07-29T06:14:33;6.10;;;3.60;;
4106;SDS011;21906;50.812;7.132;2022-07-29T06:17:00;5.27;;;3.33;;
4106;SDS011;21906;50.812;7.132;2022-07-29T06:19:25;3.07;;;2.87;;
4106;SDS011;21906;50.812;7.132;2022-07-29T06:21:51;5.77;;;3.30;;
4106;SDS011;21906;50.812;7.132;2022-07-29T06:24:17;4.30;;;3.33;;
4106;SDS011;21906;50.812;7.132;2022-07-29T06:26:42;3.73;;;3.10;;
4106;SDS011;21906;50.812;7.132;2022-07-29T06:29:08;5.63;;;3.00;;
4106;SDS011;21906;50.812;7.132;2022-07-29T06:31:37;6.63;;;3.37;;
4106;SDS011;21906;50.812;7.132;2022-07-29T06:34:03;5.03;;;3.17;;
4106;SDS011;21906;50.812;7.132;2022-07-29T06:36:29;3.80;;;3.00;;
4106;SDS011;21906;50.812;7.132;2022-07-29T06:38:55;11.80;;;3.67;;
4106;SDS011;21906;50.812;7.132;2022-07-29T06:41:20;3.27;;;2.97;;
4106;SDS011;21906;50.812;7.132;2022-07-29T06:43:47;11.03;;;3.10;;
4106;SDS011;21906;50.812;7.132;2022-07-29T06:46:14;3.53;;;3.10;;
4106;SDS011;21906;50.812;7.132;2022-07-29T06:48:42;3.37;;;2.80;;
4106;SDS011;21906;50.812;7.132;2022-07-29T06:51:09;3.37;;;3.00;;
4106;SDS011;21906;50.812;7.132;2022-07-29T06:53:35;6.60;;;3.03;;
4106;SDS011;21906;50.812;7.132;2022-07-29T06:56:02;3.90;;;3.47;;
4106;SDS011;21906;50.812;7.132;2022-07-29T06:58:29;3.20;;;3.00;;
4106;SDS011;21906;50.812;7.132;2022-07-29T07:00:55;6.70;;;3.07;;
4106;SDS011;21906;50.812;7.132;2022-07-29T07:03:22;6.30;;;2.80;;
4106;SDS011;21906;50.812;7.132;2022-07-29T07:05:48;3.33;;;3.03;;
4106;SDS011;21906;50.812;7.132;2022-07-29T07:08:14;4.30;;;2.80;;
4106;SDS011;21906;50.812;7.132;2022-07-29T07:10:41;6.10;;;3.57;;
4106;SDS011;21906;50.812;7.132;2022-07-29T07:13:08;8.53;;;3.03;;
4106;SDS011;21906;50.812;7.132;2022-07-29T07:15:33;3.20;;;2.80;;
4106;SDS011;21906;50.812;7.132;2022-07-29T07:18:01;4.00;;;2.83;;
4106;SDS011;21906;50.812;7.132;2022-07-29T07:20:27;3.07;;;2.80;;
4106;SDS011;21906;50.812;7.132;2022-07-29T07:22:53;7.40;;;3.20;;
4106;SDS011;21906;50.812;7.132;2022-07-29T07:25:18;3.60;;;2.93;;
4106;SDS011;21906;50.812;7.132;2022-07-29T07:27:44;4.27;;;2.70;;
4106;SDS011;21906;50.812;7.132;2022-07-29T07:30:10;4.43;;;3.10;;
4106;SDS011;21906;50.812;7.132;2022-07-29T07:32:36;4.27;;;3.87;;
4106;SDS011;21906;50.812;7.132;2022-07-29T07:35:03;3.33;;;3.03;;
4106;SDS011;21906;50.812;7.132;2022-07-29T07:37:30;3.20;;;2.93;;
4106;SDS011;21906;50.812;7.132;2022-07-29T07:39:55;6.03;;;3.20;;
4106;SDS011;21906;50.812;7.132;2022-07-29T07:42:21;5.10;;;2.80;;
4106;SDS011;21906;50.812;7.132;2022-07-29T07:44:47;3.60;;;3.30;;
4106;SDS011;21906;50.812;7.132;2022-07-29T07:47:13;3.47;;;3.17;;
4106;SDS011;21906;50.812;7.132;2022-07-29T07:49:40;3.60;;;2.90;;
4106;SDS011;21906;50.812;7.132;2022-07-29T07:52:06;3.20;;;2.90;;
4106;SDS011;21906;50.812;7.132;2022-07-29T07:54:31;6.20;;;2.90;;
4106;SDS011;21906;50.812;7.132;2022-07-29T07:56:57;4.27;;;2.70;;
4106;SDS011;21906;50.812;7.132;2022-07-29T07:59:23;3.40;;;3.10;;
4106;SDS011;21906;50.812;7.132;2022-07-29T08:01:49;4.60;;;3.30;;
4106;SDS011;21906;50.812;7.132;2022-07-29T08:04:15;3.37;;;3.07;;
4106;SDS011;21906;50.812;7.132;2022-07-29T08:06:40;3.23;;;2.83;;
4106;SDS011;21906;50.812;7.132;2022-07-29T08:09:06;5.30;;;2.90;;
4106;SDS011;21906;50.812;7.132;2022-07-29T08:11:32;4.40;;;3.07;;
4106;SDS011;21906;50.812;7.132;2022-07-29T08:13:57;4.13;;;3.43;;
4106;SDS011;21906;50.812;7.132;2022-07-29T08:16:23;3.20;;;3.00;;
4106;SDS011;21906;50.812;7.132;2022-07-29T08:18:50;5.93;;;2.97;;
4106;SDS011;21906;50.812;7.132;2022-07-29T08:21:17;4.23;;;3.10;;
4106;SDS011;21906;50.812;7.132;2022-07-29T08:23:43;4.13;;;2.93;;
4106;SDS011;21906;50.812;7.132;2022-07-29T08:26:18;4.50;;;3.00;;
4106;SDS011;21906;50.812;7.132;2022-07-29T08:28:44;4.23;;;3.00;;
4106;SDS011;21906;50.812;7.132;2022-07-29T08:31:14;6.03;;;3.57;;
4106;SDS011;21906;50.812;7.132;2022-07-29T08:33:40;5.67;;;3.10;;
4106;SDS011;21906;50.812;7.132;2022-07-29T08:36:06;5.20;;;2.80;;
4106;SDS011;21906;50.812;7.132;2022-07-29T08:38:32;4.53;;;3.00;;
4106;SDS011;21906;50.812;7.132;2022-07-29T08:41:00;8.03;;;3.47;;
4106;SDS011;21906;50.812;7.132;2022-07-29T08:43:26;6.97;;;3.53;;
4106;SDS011;21906;50.812;7.132;2022-07-29T08:45:52;4.17;;;3.40;;
4106;SDS011;21906;50.812;7.132;2022-07-29T08:48:19;12.80;;;2.90;;
4106;SDS011;21906;50.812;7.132;2022-07-29T08:50:47;4.97;;;3.07;;
4106;SDS011;21906;50.812;7.132;2022-07-29T08:53:17;8.90;;;2.93;;
4106;SDS011;21906;50.812;7.132;2022-07-29T08:55:45;4.70;;;3.30;;
4106;SDS011;21906;50.812;7.132;2022-07-29T08:58:13;2.93;;;2.73;;
4106;SDS011;21906;50.812;7.132;2022-07-29T09:00:46;5.30;;;2.70;;
4106;SDS011;21906;50.812;7.132;2022-07-29T09:03:20;4.40;;;3.37;;
4106;SDS011;21906;50.812;7.132;2022-07-29T09:05:48;6.30;;;3.77;;
4106;SDS011;21906;50.812;7.132;2022-07-29T09:08:15;4.77;;;3.10;;
4106;SDS011;21906;50.812;7.132;2022-07-29T09:10:42;4.33;;;3.57;;
4106;SDS011;21906;50.812;7.132;2022-07-29T09:13:08;5.80;;;3.73;;
4106;SDS011;21906;50.812;7.132;2022-07-29T09:15:34;3.53;;;3.23;;
4106;SDS011;21906;50.812;7.132;2022-07-29T09:18:00;4.20;;;3.00;;
4106;SDS011;21906;50.812;7.132;2022-07-29T09:20:27;4.13;;;3.17;;
4106;SDS011;21906;50.812;7.132;2022-07-29T09:23:13;6.10;;;3.67;;
4106;SDS011;21906;50.812;7.132;2022-07-29T09:25:39;3.67;;;3.10;;
4106;SDS011;21906;50.812;7.132;2022-07-29T09:28:07;4.40;;;3.30;;
4106;SDS011;21906;50.812;7.132;2022-07-29T09:33:18;4.93;;;3.60;;
4106;SDS011;21906;50.812;7.132;2022-07-29T09:35:45;6.57;;;3.50;;
4106;SDS011;21906;50.812;7.132;2022-07-29T09:38:12;3.70;;;3.40;;
4106;SDS011;21906;50.812;7.132;2022-07-29T09:40:38;5.37;;;3.20;;
4106;SDS011;21906;50.812;7.132;2022-07-29T09:43:11;6.10;;;3.47;;
4106;SDS011;21906;50.812;7.132;2022-07-29T09:45:38;5.83;;;3.57;;
4106;SDS011;21906;50.812;7.132;2022-07-29T09:48:14;5.43;;;3.57;;
4106;SDS011;21906;50.812;7.132;2022-07-29T09:50:42;6.40;;;3.90;;
4106;SDS011;21906;50.812;7.132;2022-07-29T09:53:08;7.63;;;3.60;;
4106;SDS011;21906;50.812;7.132;2022-07-29T09:55:50;5.57;;;3.50;;
4106;SDS011;21906;50.812;7.132;2022-07-29T10:00:47;3.67;;;3.37;;
4106;SDS011;21906;50.812;7.132;2022-07-29T10:03:14;7.23;;;3.83;;
4106;SDS011;21906;50.812;7.132;2022-07-29T10:05:40;8.47;;;3.80;;
4106;SDS011;21906;50.812;7.132;2022-07-29T10:08:07;4.70;;;3.50;;
4106;SDS011;21906;50.812;7.132;2022-07-29T10:10:34;5.63;;;3.57;;
4106;SDS011;21906;50.812;7.132;2022-07-29T10:13:05;8.07;;;3.90;;
4106;SDS011;21906;50.812;7.132;2022-07-29T10:15:36;6.07;;;3.70;;
4106;SDS011;21906;50.812;7.132;2022-07-29T10:18:06;4.10;;;3.30;;
4106;SDS011;21906;50.812;7.132;2022-07-29T10:20:33;6.53;;;4.00;;
4106;SDS011;21906;50.812;7.132;2022-07-29T10:22:59;7.33;;;3.93;;
4106;SDS011;21906;50.812;7.132;2022-07-29T10:25:26;5.13;;;4.13;;
4106;SDS011;21906;50.812;7.132;2022-07-29T10:27:52;8.07;;;4.23;;
4106;SDS011;21906;50.812;7.132;2022-07-29T10:30:19;5.50;;;4.50;;
4106;SDS011;21906;50.812;7.132;2022-07-29T10:43:52;9.63;;;3.90;;
4106;SDS011;21906;50.812;7.132;2022-07-29T10:46:42;6.30;;;4.13;;
4106;SDS011;21906;50.812;7.132;2022-07-29T10:59:50;5.83;;;3.90;;
4106;SDS011;21906;50.812;7.132;2022-07-29T11:05:08;4.20;;;3.90;;
4106;SDS011;21906;50.812;7.132;2022-07-29T11:07:34;4.23;;;3.50;;
4106;SDS011;21906;50.812;7.132;2022-07-29T11:15:09;4.33;;;3.77;;
4106;SDS011;21906;50.812;7.132;2022-07-29T11:23:26;4.40;;;3.73;;
4106;SDS011;21906;50.812;7.132;2022-07-29T11:31:33;5.60;;;3.50;;
4106;SDS011;21906;50.812;7.132;2022-07-29T11:39:37;4.43;;;4.03;;
4106;SDS011;21906;50.812;7.132;2022-07-29T11:47:32;5.60;;;3.47;;
4106;SDS011;21906;50.812;7.132;2022-07-29T11:50:33;3.77;;;3.43;;
4106;SDS011;21906;50.812;7.132;2022-07-29T11:53:02;5.23;;;3.63;;
4106;SDS011;21906;50.812;7.132;2022-07-29T11:55:36;3.47;;;3.17;;
4106;SDS011;21906;50.812;7.132;2022-07-29T11:58:04;4.67;;;3.70;;
4106;SDS011;21906;50.812;7.132;2022-07-29T12:00:34;4.10;;;3.70;;
4106;SDS011;21906;50.812;7.132;2022-07-29T12:03:03;4.40;;;3.93;;
4106;SDS011;21906;50.812;7.132;2022-07-29T12:05:31;5.13;;;4.07;;
4106;SDS011;21906;50.812;7.132;2022-07-29T12:08:05;4.33;;;3.83;;
4106;SDS011;21906;50.812;7.132;2022-07-29T12:10:34;4.77;;;3.60;;
4106;SDS011;21906;50.812;7.132;2022-07-29T12:13:00;3.70;;;3.37;;
4106;SDS011;21906;50.812;7.132;2022-07-29T12:15:26;4.33;;;3.93;;
4106;SDS011;21906;50.812;7.132;2022-07-29T12:17:52;7.00;;;4.00;;
4106;SDS011;21906;50.812;7.132;2022-07-29T12:22:54;4.93;;;4.10;;
4106;SDS011;21906;50.812;7.132;2022-07-29T12:25:20;4.20;;;3.80;;
4106;SDS011;21906;50.812;7.132;2022-07-29T12:27:47;3.90;;;3.60;;
4106;SDS011;21906;50.812;7.132;2022-07-29T12:30:23;4.17;;;3.80;;
4106;SDS011;21906;50.812;7.132;2022-07-29T12:33:15;4.90;;;3.77;;
4106;SDS011;21906;50.812;7.132;2022-07-29T12:35:49;4.67;;;4.27;;
4106;SDS011;21906;50.812;7.132;2022-07-29T12:38:20;3.80;;;3.33;;
4106;SDS011;21906;50.812;7.132;2022-07-29T12:40:47;5.40;;;3.70;;
4106;SDS011;21906;50.812;7.132;2022-07-29T12:43:17;4.70;;;3.87;;
4106;SDS011;21906;50.812;7.132;2022-07-29T12:45:45;4.10;;;3.70;;
4106;SDS011;21906;50.812;7.132;2022-07-29T12:48:12;5.13;;;4.10;;
4106;SDS011;21906;50.812;7.132;2022-07-29T12:50:52;4.53;;;4.03;;
4106;SDS011;21906;50.812;7.132;2022-07-29T12:53:19;4.87;;;4.30;;
4106;SDS011;21906;50.812;7.132;2022-07-29T12:55:46;5.40;;;4.90;;
4106;SDS011;21906;50.812;7.132;2022-07-29T13:01:12;4.80;;;4.33;;
4106;SDS011;21906;50.812;7.132;2022-07-29T13:11:30;4.43;;;4.03;;
4106;SDS011;21906;50.812;7.132;2022-07-29T13:14:02;5.20;;;4.00;;
4106;SDS011;21906;50.812;7.132;2022-07-29T13:16:29;4.27;;;3.87;;
4106;SDS011;21906;50.812;7.132;2022-07-29T13:19:05;6.17;;;4.10;;
4106;SDS011;21906;50.812;7.132;2022-07-29T13:21:35;4.23;;;3.83;;
4106;SDS011;21906;50.812;7.132;2022-07-29T13:24:01;4.40;;;4.00;;
4106;SDS011;21906;50.812;7.132;2022-07-29T13:26:27;4.80;;;4.00;;
4106;SDS011;21906;50.812;7.132;2022-07-29T13:28:53;6.57;;;4.07;;
4106;SDS011;21906;50.812;7.132;2022-07-29T13:31:19;4.73;;;4.33;;
4106;SDS011;21906;50.812;7.132;2022-07-29T13:33:45;4.20;;;3.80;;
4106;SDS011;21906;50.812;7.132;2022-07-29T13:36:11;4.43;;;3.70;;
4106;SDS011;21906;50.812;7.132;2022-07-29T13:38:36;3.93;;;3.70;;
4106;SDS011;21906;50.812;7.132;2022-07-29T13:41:02;4.40;;;4.00;;
4106;SDS011;21906;50.812;7.132;2022-07-29T13:43:28;5.53;;;4.40;;
4106;SDS011;21906;50.812;7.132;2022-07-29T13:45:53;4.73;;;4.20;;
4106;SDS011;21906;50.812;7.132;2022-07-29T13:48:19;5.00;;;3.70;;
4106;SDS011;21906;50.812;7.132;2022-07-29T13:50:45;8.07;;;3.97;;
4106;SDS011;21906;50.812;7.132;2022-07-29T13:53:11;3.80;;;3.60;;
4106;SDS011;21906;50.812;7.132;2022-07-29T13:55:38;6.23;;;4.07;;
4106;SDS011;21906;50.812;7.132;2022-07-29T13:58:03;3.90;;;3.67;;
4106;SDS011;21906;50.812;7.132;2022-07-29T14:00:29;4.53;;;4.13;;
4106;SDS011;21906;50.812;7.132;2022-07-29T14:02:56;4.37;;;4.07;;
4106;SDS011;21906;50.812;7.132;2022-07-29T14:05:21;4.20;;;3.90;;
4106;SDS011;21906;50.812;7.132;2022-07-29T14:07:47;3.87;;;3.53;;
4106;SDS011;21906;50.812;7.132;2022-07-29T14:10:13;3.93;;;3.63;;
4106;SDS011;21906;50.812;7.132;2022-07-29T14:12:39;4.23;;;3.63;;
4106;SDS011;21906;50.812;7.132;2022-07-29T14:15:06;8.93;;;4.07;;
4106;SDS011;21906;50.812;7.132;2022-07-29T14:17:33;5.97;;;3.97;;
4106;SDS011;21906;50.812;7.132;2022-07-29T14:19:59;4.27;;;3.83;;
4106;SDS011;21906;50.812;7.132;2022-07-29T14:22:24;4.83;;;3.60;;
4106;SDS011;21906;50.812;7.132;2022-07-29T14:24:50;4.47;;;4.07;;
4106;SDS011;21906;50.812;7.132;2022-07-29T14:27:16;4.63;;;4.23;;
4106;SDS011;21906;50.812;7.132;2022-07-29T14:29:41;5.33;;;4.00;;
4106;SDS011;21906;50.812;7.132;2022-07-29T14:32:08;3.87;;;3.67;;
4106;SDS011;21906;50.812;7.132;2022-07-29T14:34:39;4.10;;;3.90;;
4106;SDS011;21906;50.812;7.132;2022-07-29T14:37:05;7.90;;;4.30;;
4106;SDS011;21906;50.812;7.132;2022-07-29T14:39:32;5.57;;;4.33;;
4106;SDS011;21906;50.812;7.132;2022-07-29T14:41:58;4.53;;;4.20;;
4106;SDS011;21906;50.812;7.132;2022-07-29T14:44:23;5.30;;;4.07;;
4106;SDS011;21906;50.812;7.132;2022-07-29T14:46:54;4.50;;;4.10;;
4106;SDS011;21906;50.812;7.132;2022-07-29T14:49:19;6.00;;;4.37;;
4106;SDS011;21906;50.812;7.132;2022-07-29T14:51:45;4.73;;;4.40;;
4106;SDS011;21906;50.812;7.132;2022-07-29T14:54:10;5.10;;;4.70;;
4106;SDS011;21906;50.812;7.132;2022-07-29T14:56:36;5.93;;;5.00;;
4106;SDS011;21906;50.812;7.132;2022-07-29T14:59:02;5.00;;;4.60;;
4106;SDS011;21906;50.812;7.132;2022-07-29T15:01:27;8.40;;;4.70;;
4106;SDS011;21906;50.812;7.132;2022-07-29T15:03:54;6.27;;;5.10;;
4106;SDS011;21906;50.812;7.132;2022-07-29T15:06:19;5.27;;;4.70;;
4106;SDS011;21906;50.812;7.132;2022-07-29T15:08:45;5.10;;;4.63;;
4106;SDS011;21906;50.812;7.132;2022-07-29T15:11:11;5.83;;;4.97;;
4106;SDS011;21906;50.812;7.132;2022-07-29T15:13:36;5.33;;;4.90;;
4106;SDS011;21906;50.812;7.132;2022-07-29T15:16:02;5.03;;;4.73;;
4106;SDS011;21906;50.812;7.132;2022-07-29T15:18:29;7.57;;;4.77;;
4106;SDS011;21906;50.812;7.132;2022-07-29T15:20:55;6.37;;;5.70;;
4106;SDS011;21906;50.812;7.132;2022-07-29T15:23:20;16.00;;;12.90;;
4106;SDS011;21906;50.812;7.132;2022-07-29T15:25:46;10.90;;;8.20;;
4106;SDS011;21906;50.812;7.132;2022-07-29T15:28:12;6.67;;;5.40;;
4106;SDS011;21906;50.812;7.132;2022-07-29T15:30:37;6.90;;;5.13;;
4106;SDS011;21906;50.812;7.132;2022-07-29T15:33:07;5.87;;;5.30;;
4106;SDS011;21906;50.812;7.132;2022-07-29T15:35:36;5.93;;;5.40;;
4106;SDS011;21906;50.812;7.132;2022-07-29T15:38:02;5.33;;;4.83;;
4106;SDS011;21906;50.812;7.132;2022-07-29T15:40:28;5.77;;;5.10;;
4106;SDS011;21906;50.812;7.132;2022-07-29T15:42:54;5.33;;;4.93;;
4106;SDS011;21906;50.812;7.132;2022-07-29T15:45:19;6.07;;;4.80;;
4106;SDS011;21906;50.812;7.132;2022-07-29T15:47:45;5.60;;;3.80;;
4106;SDS011;21906;50.812;7.132;2022-07-29T15:50:11;5.30;;;4.90;;
4106;SDS011;21906;50.812;7.132;2022-07-29T15:52:40;4.30;;;3.90;;
4106;SDS011;21906;50.812;7.132;2022-07-29T15:55:06;4.67;;;4.27;;
4106;SDS011;21906;50.812;7.132;2022-07-29T15:57:32;4.73;;;4.43;;
4106;SDS011;21906;50.812;7.132;2022-07-29T15:59:58;4.97;;;4.67;;
4106;SDS011;21906;50.812;7.132;2022-07-29T16:02:24;6.10;;;4.23;;
4106;SDS011;21906;50.812;7.132;2022-07-29T16:04:49;7.60;;;4.50;;
4106;SDS011;21906;50.812;7.132;2022-07-29T16:07:15;4.60;;;4.17;;
4106;SDS011;21906;50.812;7.132;2022-07-29T16:09:42;5.13;;;4.73;;
4106;SDS011;21906;50.812;7.132;2022-07-29T16:12:08;4.70;;;4.30;;
4106;SDS011;21906;50.812;7.132;2022-07-29T16:14:34;4.30;;;4.03;;
4106;SDS011;21906;50.812;7.132;2022-07-29T16:16:59;4.53;;;4.13;;
4106;SDS011;21906;50.812;7.132;2022-07-29T16:19:27;4.80;;;4.40;;
4106;SDS011;21906;50.812;7.132;2022-07-29T16:21:55;5.40;;;4.90;;